Time;durP1;ratioP1;P1;durP2;ratioP2;P2;SDS_P1;SDS_P2;PMS_P1;PMS_P2;Temp;Humidity;BMP_temperature;BMP_pressure;BME280_temperature;BME280_humidity;BME280_pressure;Samples;Min_cycle;Max_cycle;Signal;HPM_P1;HPM_P2
2024/05/01 00:01:43;;;;;;;17.90;11.33;;;15.10;99.90;;;;;;5406929;26;20212;-73
2024/05/01 00:04:08;;;;;;;20.07;10.80;;;15.10;99.90;;;;;;5406501;26;20217;-73
2024/05/01 00:06:34;;;;;;;15.93;10.00;;;15.10;99.90;;;;;;5407028;26;20258;-73
2024/05/01 00:09:00;;;;;;;14.23;10.20;;;15.10;99.90;;;;;;5406755;26;20216;-73
2024/05/01 00:11:25;;;;;;;18.77;10.87;;;15.10;99.90;;;;;;5406378;26;20252;-75
2024/05/01 00:13:51;;;;;;;18.40;10.53;;;15.10;99.90;;;;;;5405725;26;20615;-74
2024/05/01 00:16:16;;;;;;;12.73;10.03;;;15.20;99.90;;;;;;5406149;26;20228;-73
2024/05/01 00:18:42;;;;;;;16.43;10.93;;;15.20;99.90;;;;;;5406358;26;20204;-74
2024/05/01 00:21:07;;;;;;;15.87;9.73;;;15.20;99.90;;;;;;5406140;26;20749;-73
2024/05/01 00:23:33;;;;;;;16.20;10.03;;;15.30;99.90;;;;;;5405626;26;20228;-73
2024/05/01 00:25:58;;;;;;;23.07;10.13;;;15.30;99.90;;;;;;5404805;26;20229;-74
2024/05/01 00:28:24;;;;;;;16.80;9.70;;;15.20;99.90;;;;;;5406170;26;20259;-73
2024/05/01 00:30:50;;;;;;;13.30;9.13;;;15.20;99.90;;;;;;5405931;26;20213;-73
2024/05/01 00:33:15;;;;;;;15.27;10.17;;;15.20;99.90;;;;;;5405429;26;20667;-74
2024/05/01 00:35:41;;;;;;;12.47;8.97;;;15.20;99.90;;;;;;5406079;26;20255;-73
2024/05/01 00:38:06;;;;;;;21.67;9.77;;;15.20;99.90;;;;;;5406251;26;20259;-73
2024/05/01 00:40:32;;;;;;;14.50;9.27;;;15.20;99.90;;;;;;5405822;26;20320;-73
2024/05/01 00:42:57;;;;;;;15.97;9.40;;;15.20;99.90;;;;;;5405134;26;20276;-74
2024/05/01 00:45:23;;;;;;;13.30;9.57;;;15.20;99.90;;;;;;5405831;26;20336;-73
2024/05/01 00:47:54;;;;;;;13.23;8.93;;;15.20;99.90;;;;;;5405916;26;20746;-74
2024/05/01 00:50:24;;;;;;;16.13;9.47;;;15.10;99.90;;;;;;5405313;26;20253;-73
2024/05/01 00:52:51;;;;;;;10.43;8.70;;;15.10;99.90;;;;;;5405759;26;20252;-74
2024/05/01 00:55:20;;;;;;;11.97;8.90;;;15.10;99.90;;;;;;5405543;26;20221;-73
2024/05/01 00:57:51;;;;;;;13.30;9.33;;;15.00;99.90;;;;;;5406109;26;20247;-73
2024/05/01 01:00:20;;;;;;;10.70;9.53;;;15.00;99.90;;;;;;5405234;26;20815;-74
2024/05/01 01:02:46;;;;;;;16.20;10.43;;;14.90;99.90;;;;;;5371398;26;20236;-74
2024/05/01 01:05:12;;;;;;;15.13;10.23;;;14.90;99.90;;;;;;5370576;26;20225;-74
2024/05/01 01:07:38;;;;;;;18.43;10.37;;;14.80;99.90;;;;;;5370239;26;20612;-74
2024/05/01 01:10:04;;;;;;;18.90;9.63;;;14.80;99.90;;;;;;5369930;26;20546;-73
2024/05/01 01:12:29;;;;;;;17.47;10.23;;;14.80;99.90;;;;;;5401928;26;20274;-74
2024/05/01 01:14:55;;;;;;;21.30;11.00;;;14.80;99.90;;;;;;5405290;26;20332;-73
2024/05/01 01:17:21;;;;;;;13.73;10.57;;;14.70;99.90;;;;;;5405548;26;20208;-74
2024/05/01 01:19:47;;;;;;;22.00;10.60;;;14.70;99.90;;;;;;5405328;26;20228;-73
2024/05/01 01:22:12;;;;;;;14.87;10.97;;;14.70;99.90;;;;;;5405243;26;20242;-73
2024/05/01 01:24:38;;;;;;;12.47;11.20;;;14.70;99.90;;;;;;5405302;26;20280;-74
2024/05/01 01:27:04;;;;;;;17.07;10.53;;;14.70;99.90;;;;;;5405498;26;20255;-73
2024/05/01 01:29:29;;;;;;;14.90;10.87;;;14.70;99.90;;;;;;5404707;26;20228;-73
2024/05/01 01:31:55;;;;;;;14.83;10.50;;;14.70;99.90;;;;;;5405378;26;20216;-74
2024/05/01 01:34:20;;;;;;;15.93;11.07;;;14.70;99.90;;;;;;5405072;26;20727;-74
2024/05/01 01:36:46;;;;;;;13.97;10.60;;;14.60;99.90;;;;;;5404910;26;20209;-73
2024/05/01 01:39:12;;;;;;;16.83;10.63;;;14.60;99.90;;;;;;5405100;26;20224;-74
2024/05/01 01:41:37;;;;;;;13.33;10.23;;;14.60;99.90;;;;;;5405257;26;20212;-74
2024/05/01 01:44:03;;;;;;;13.27;11.27;;;14.60;99.90;;;;;;5404840;26;20317;-74
2024/05/01 01:46:32;;;;;;;20.37;10.97;;;14.50;99.90;;;;;;5405516;26;20688;-74
2024/05/01 01:48:58;;;;;;;15.17;11.23;;;14.50;99.90;;;;;;5404609;26;20212;-74
2024/05/01 01:51:24;;;;;;;21.67;12.93;;;14.50;99.90;;;;;;5404905;26;20614;-74
2024/05/01 01:53:50;;;;;;;14.00;11.13;;;14.50;99.90;;;;;;5404805;26;20259;-74
2024/05/01 01:56:16;;;;;;;17.83;11.87;;;14.40;99.90;;;;;;5404556;26;20216;-74
2024/05/01 01:58:43;;;;;;;19.17;12.07;;;14.40;99.90;;;;;;5404930;26;20263;-74
2024/05/01 02:01:08;;;;;;;17.40;11.47;;;14.40;99.90;;;;;;5404389;26;20271;-74
2024/05/01 02:03:34;;;;;;;17.27;12.57;;;14.40;99.90;;;;;;5404937;26;20220;-74
2024/05/01 02:06:00;;;;;;;18.23;12.73;;;14.40;99.90;;;;;;5405213;26;20220;-74
2024/05/01 02:08:26;;;;;;;15.17;12.40;;;14.30;99.90;;;;;;5404764;26;20792;-74
2024/05/01 02:10:52;;;;;;;15.67;12.47;;;14.30;99.90;;;;;;5404397;26;20224;-73
2024/05/01 02:13:17;;;;;;;20.03;12.13;;;14.30;99.90;;;;;;5404396;26;20205;-74
2024/05/01 02:15:43;;;;;;;17.73;12.10;;;14.30;99.90;;;;;;5404546;26;20251;-74
2024/05/01 02:18:09;;;;;;;15.03;11.90;;;14.30;99.90;;;;;;5404527;26;20778;-74
2024/05/01 02:20:34;;;;;;;18.87;11.93;;;14.30;99.90;;;;;;5404575;26;20707;-74
2024/05/01 02:23:00;;;;;;;18.83;11.90;;;14.30;99.90;;;;;;5372840;26;20304;-74
2024/05/01 02:25:25;;;;;;;19.57;10.97;;;14.30;99.90;;;;;;5404350;26;20291;-74
2024/05/01 02:27:51;;;;;;;15.93;11.33;;;14.20;99.90;;;;;;5404295;26;20272;-74
2024/05/01 02:30:17;;;;;;;12.67;10.57;;;14.20;99.90;;;;;;5404135;26;20216;-74
2024/05/01 02:32:42;;;;;;;17.57;10.93;;;14.20;99.90;;;;;;5404244;26;20285;-73
2024/05/01 02:35:08;;;;;;;10.70;9.57;;;14.20;99.90;;;;;;5404876;26;20263;-74
2024/05/01 02:37:33;;;;;;;14.97;9.60;;;14.30;99.90;;;;;;5404294;26;20687;-75
2024/05/01 02:39:59;;;;;;;15.33;10.10;;;14.30;99.90;;;;;;5404217;26;20217;-74
2024/05/01 02:42:25;;;;;;;16.53;9.13;;;14.30;99.90;;;;;;5404114;26;20683;-74
2024/05/01 02:44:50;;;;;;;13.37;9.00;;;14.40;99.90;;;;;;5404533;26;20236;-74
2024/05/01 02:47:16;;;;;;;15.60;9.50;;;14.40;99.90;;;;;;5404419;26;20226;-74
2024/05/01 02:49:42;;;;;;;11.33;8.67;;;14.40;99.90;;;;;;5406767;26;20232;-74
2024/05/01 02:52:07;;;;;;;14.37;8.10;;;14.40;99.90;;;;;;5407614;26;20706;-75
2024/05/01 02:54:33;;;;;;;11.83;8.07;;;14.40;99.90;;;;;;5408212;26;20274;-74
2024/05/01 02:56:58;;;;;;;12.37;8.23;;;14.40;99.90;;;;;;5407598;26;20217;-74
2024/05/01 02:59:24;;;;;;;14.07;7.97;;;14.40;99.90;;;;;;5407929;26;20320;-74
2024/05/01 03:01:50;;;;;;;18.10;8.50;;;14.40;99.90;;;;;;5407677;26;20540;-74
2024/05/01 03:04:15;;;;;;;18.07;7.90;;;14.40;99.90;;;;;;5407797;26;20208;-74
2024/05/01 03:06:41;;;;;;;12.60;8.10;;;14.30;99.90;;;;;;5407174;26;20329;-74
2024/05/01 03:09:06;;;;;;;13.67;7.43;;;14.30;99.90;;;;;;5407884;26;20285;-74
2024/05/01 03:11:32;;;;;;;18.17;7.60;;;14.20;99.90;;;;;;5407340;26;20696;-74
2024/05/01 03:13:58;;;;;;;12.23;7.97;;;14.20;99.90;;;;;;5407096;26;20263;-73
2024/05/01 03:16:23;;;;;;;8.43;7.13;;;14.20;99.90;;;;;;5406959;26;20324;-75
2024/05/01 03:18:49;;;;;;;11.67;7.00;;;14.10;99.90;;;;;;5407940;26;20247;-74
2024/05/01 03:21:14;;;;;;;11.50;7.80;;;14.10;99.90;;;;;;5407129;26;20544;-74
2024/05/01 03:23:40;;;;;;;16.83;8.00;;;14.10;99.90;;;;;;5407187;26;20316;-74
2024/05/01 03:26:15;;;;;;;19.20;7.50;;;14.10;99.90;;;;;;5407493;26;20283;-74
2024/05/01 03:28:41;;;;;;;13.87;7.53;;;14.00;99.90;;;;;;5407756;26;20340;-74
2024/05/01 03:31:15;;;;;;;17.17;8.00;;;14.00;99.90;;;;;;5407193;26;20221;-74
2024/05/01 03:33:41;;;;;;;14.47;8.33;;;14.00;99.90;;;;;;5407040;26;20711;-74
2024/05/01 03:36:08;;;;;;;14.17;7.77;;;14.00;99.90;;;;;;5406649;26;20575;-74
2024/05/01 03:38:34;;;;;;;16.43;7.60;;;14.00;99.90;;;;;;5406988;26;20208;-74
2024/05/01 03:40:59;;;;;;;12.63;7.50;;;13.90;99.90;;;;;;5407065;26;20564;-73
2024/05/01 03:43:25;;;;;;;22.53;8.30;;;14.00;99.90;;;;;;5407055;26;20312;-74
2024/05/01 03:45:50;;;;;;;17.63;7.77;;;14.00;99.90;;;;;;5406715;26;20350;-74
2024/05/01 03:48:16;;;;;;;16.17;7.60;;;14.00;99.90;;;;;;5406628;26;20727;-74
2024/05/01 03:50:41;;;;;;;18.00;7.50;;;14.10;99.90;;;;;;5406382;26;20277;-74
2024/05/01 03:53:07;;;;;;;12.30;7.43;;;14.10;99.90;;;;;;5406793;26;20204;-74
2024/05/01 03:55:32;;;;;;;12.87;7.47;;;14.10;99.90;;;;;;5406428;26;20232;-74
2024/05/01 03:57:58;;;;;;;11.27;6.87;;;14.10;99.90;;;;;;5406792;26;20568;-74
2024/05/01 04:00:28;;;;;;;11.23;7.00;;;14.10;99.90;;;;;;5404810;26;20259;-74
2024/05/01 04:02:53;;;;;;;18.17;7.93;;;14.00;99.90;;;;;;5406282;26;20268;-74
2024/05/01 04:05:19;;;;;;;18.37;6.97;;;14.00;99.90;;;;;;5405830;26;20747;-74
2024/05/01 04:07:45;;;;;;;12.37;7.70;;;14.00;99.90;;;;;;5406541;26;20221;-74
2024/05/01 04:10:10;;;;;;;11.73;7.00;;;14.00;99.90;;;;;;5406669;26;20684;-75
2024/05/01 04:12:36;;;;;;;10.23;7.13;;;14.00;99.90;;;;;;5375503;26;20224;-74
2024/05/01 04:15:02;;;;;;;16.47;7.03;;;14.00;99.90;;;;;;5406340;26;20275;-74
2024/05/01 04:17:28;;;;;;;14.27;8.10;;;14.00;99.90;;;;;;5406063;26;20619;-74
2024/05/01 04:19:54;;;;;;;15.60;7.83;;;14.00;99.90;;;;;;5405829;26;20213;-74
2024/05/01 04:22:19;;;;;;;13.70;7.67;;;14.00;99.90;;;;;;5406268;26;20213;-74
2024/05/01 04:24:45;;;;;;;10.27;6.83;;;14.00;99.90;;;;;;5406469;26;20707;-74
2024/05/01 04:27:10;;;;;;;16.23;7.23;;;14.00;99.90;;;;;;5406296;26;20339;-74
2024/05/01 04:29:36;;;;;;;15.70;7.57;;;14.00;99.90;;;;;;5406544;26;20259;-74
2024/05/01 04:32:02;;;;;;;9.53;7.23;;;14.00;99.90;;;;;;5406086;26;20221;-75
2024/05/01 04:34:27;;;;;;;11.13;7.07;;;14.00;99.90;;;;;;5406625;26;20224;-74
2024/05/01 04:36:53;;;;;;;12.87;7.70;;;14.10;99.90;;;;;;5374518;26;20232;-74
2024/05/01 04:39:18;;;;;;;16.47;8.13;;;14.10;99.90;;;;;;5406060;26;20216;-74
2024/05/01 04:41:44;;;;;;;14.70;7.23;;;14.10;99.90;;;;;;5405067;26;20212;-74
2024/05/01 04:44:09;;;;;;;15.50;7.77;;;14.10;99.90;;;;;;5406559;26;20345;-74
2024/05/01 04:46:35;;;;;;;13.57;7.87;;;14.10;99.90;;;;;;5406084;26;20240;-74
2024/05/01 04:49:01;;;;;;;16.50;8.63;;;14.10;99.90;;;;;;5406264;26;20218;-74
2024/05/01 04:51:27;;;;;;;9.97;7.97;;;14.20;99.90;;;;;;5405481;26;20209;-74
2024/05/01 04:53:52;;;;;;;11.73;7.97;;;14.30;99.90;;;;;;5405349;26;20321;-74
2024/05/01 04:56:18;;;;;;;11.33;7.57;;;14.40;99.90;;;;;;5404208;26;20575;-74
2024/05/01 04:58:44;;;;;;;12.93;7.90;;;14.50;99.90;;;;;;5403765;26;20220;-74
2024/05/01 05:01:09;;;;;;;12.87;7.87;;;14.60;99.90;;;;;;5402308;26;20663;-74
2024/05/01 05:03:35;;;;;;;11.50;7.40;;;14.60;99.90;;;;;;5405281;26;20213;-74
2024/05/01 05:06:00;;;;;;;15.87;8.63;;;14.70;99.90;;;;;;5406028;26;20220;-74
2024/05/01 05:08:26;;;;;;;16.30;7.20;;;14.70;99.90;;;;;;5403798;26;20783;-74
2024/05/01 05:10:51;;;;;;;18.13;8.03;;;14.70;99.90;;;;;;5405489;26;20212;-74
2024/05/01 05:13:17;;;;;;;16.07;7.90;;;14.70;99.90;;;;;;5404962;26;20213;-74
2024/05/01 05:15:42;;;;;;;13.20;8.23;;;14.70;99.90;;;;;;5405282;26;20712;-74
2024/05/01 05:18:08;;;;;;;15.17;7.83;;;14.90;99.90;;;;;;5405469;26;20258;-74
2024/05/01 05:20:34;;;;;;;14.33;7.57;;;15.00;99.90;;;;;;5404921;26;20224;-74
2024/05/01 05:22:59;;;;;;;16.17;7.00;;;15.10;99.90;;;;;;5404783;26;20212;-75
2024/05/01 05:25:25;;;;;;;17.00;7.63;;;15.10;99.90;;;;;;5404234;26;20237;-74
2024/05/01 05:27:50;;;;;;;13.00;8.30;;;15.30;99.90;;;;;;5405516;26;20804;-75
2024/05/01 05:30:16;;;;;;;13.27;8.60;;;15.30;99.90;;;;;;5404690;26;20213;-74
2024/05/01 05:32:41;;;;;;;10.37;7.70;;;15.40;99.90;;;;;;5405084;26;20243;-74
2024/05/01 05:35:07;;;;;;;14.57;7.93;;;15.60;99.90;;;;;;5404999;26;20228;-74
2024/05/01 05:37:33;;;;;;;12.33;8.50;;;15.70;99.90;;;;;;5404628;26;20205;-74
2024/05/01 05:39:58;;;;;;;16.47;7.83;;;15.80;99.90;;;;;;5373826;26;20700;-74
2024/05/01 05:42:25;;;;;;;13.00;7.23;;;15.90;99.90;;;;;;5405117;26;20209;-74
2024/05/01 05:44:51;;;;;;;13.70;7.60;;;16.00;99.90;;;;;;5404753;26;20757;-75
2024/05/01 05:47:16;;;;;;;12.77;7.10;;;16.10;99.90;;;;;;5405088;26;20208;-74
2024/05/01 05:49:43;;;;;;;12.47;7.47;;;16.20;99.90;;;;;;5404879;26;20216;-74
2024/05/01 05:52:09;;;;;;;11.77;6.93;;;16.30;99.90;;;;;;5404636;26;20220;-74
2024/05/01 05:54:34;;;;;;;11.80;7.30;;;16.40;99.90;;;;;;5404452;26;20225;-74
2024/05/01 05:57:00;;;;;;;13.73;7.43;;;16.50;99.90;;;;;;5404784;26;20648;-74
2024/05/01 05:59:25;;;;;;;11.10;6.97;;;16.80;99.90;;;;;;5404712;26;20634;-75
2024/05/01 06:01:51;;;;;;;16.73;6.57;;;16.90;99.90;;;;;;5405046;26;20208;-76
2024/05/01 06:04:16;;;;;;;13.53;7.20;;;17.00;99.90;;;;;;5404514;26;20262;-74
2024/05/01 06:06:42;;;;;;;14.20;6.70;;;17.00;99.90;;;;;;5404817;26;20715;-74
2024/05/01 06:09:07;;;;;;;14.33;7.20;;;17.10;99.90;;;;;;5373434;26;20236;-74
2024/05/01 06:11:33;;;;;;;9.77;7.23;;;17.20;99.90;;;;;;5404887;26;20212;-74
2024/05/01 06:13:59;;;;;;;18.33;6.87;;;17.30;99.90;;;;;;5390372;26;20589;-74
2024/05/01 06:16:24;;;;;;;12.87;7.40;;;17.40;99.90;;;;;;5404718;26;20212;-75
2024/05/01 06:18:50;;;;;;;13.00;7.57;;;17.60;99.90;;;;;;5404542;26;20320;-75
2024/05/01 06:21:15;;;;;;;10.77;6.70;;;17.80;99.90;;;;;;5403989;26;20395;-75
2024/05/01 06:23:41;;;;;;;8.27;6.53;;;18.00;99.90;;;;;;5405318;26;20225;-75
2024/05/01 06:26:06;;;;;;;9.50;6.93;;;18.20;99.90;;;;;;5407817;26;20543;-75
2024/05/01 06:28:32;;;;;;;10.87;6.90;;;18.20;99.90;;;;;;5407481;26;20212;-74
2024/05/01 06:30:58;;;;;;;11.70;7.50;;;18.00;99.90;;;;;;5407284;26;20262;-74
2024/05/01 06:33:23;;;;;;;13.43;7.38;;;18.00;99.90;;;;;;5406830;26;20224;-75
2024/05/01 06:35:49;;;;;;;13.43;7.23;;;17.90;99.90;;;;;;5407546;26;20666;-74
2024/05/01 06:38:14;;;;;;;8.70;7.27;;;18.00;99.90;;;;;;5407522;26;20297;-75
2024/05/01 06:40:40;;;;;;;14.20;7.90;;;18.20;99.90;;;;;;5407355;26;20604;-74
2024/05/01 06:43:05;;;;;;;15.35;7.80;;;18.50;99.90;;;;;;5407166;26;20320;-75
2024/05/01 06:45:31;;;;;;;9.98;7.57;;;18.80;99.90;;;;;;5407538;26;20563;-74
2024/05/01 06:47:57;;;;;;;10.02;6.60;;;19.20;99.90;;;;;;5407753;26;20208;-74
2024/05/01 06:50:22;;;;;;;13.35;7.13;;;19.20;99.90;;;;;;5406844;26;20208;-74
2024/05/01 06:52:48;;;;;;;13.82;7.15;;;19.40;99.90;;;;;;5406683;26;20220;-74
2024/05/01 06:55:13;;;;;;;14.60;6.57;;;19.70;99.90;;;;;;5407296;26;20217;-76
2024/05/01 06:57:40;;;;;;;13.27;6.95;;;19.80;99.90;;;;;;5407460;26;20208;-75
2024/05/01 07:00:07;;;;;;;11.18;6.97;;;19.90;99.90;;;;;;5406976;26;20208;-75
2024/05/01 07:02:33;;;;;;;10.73;6.85;;;20.00;99.90;;;;;;5406665;26;20224;-75
2024/05/01 07:04:59;;;;;;;15.35;6.97;;;19.90;99.90;;;;;;5407054;26;20267;-75
2024/05/01 07:07:24;;;;;;;12.43;7.55;;;19.90;99.90;;;;;;5407226;26;20247;-75
2024/05/01 07:09:50;;;;;;;11.85;6.88;;;20.20;99.90;;;;;;5407494;26;20213;-75
2024/05/01 07:12:15;;;;;;;12.25;6.25;;;20.50;99.90;;;;;;5406449;26;20224;-75
2024/05/01 07:14:41;;;;;;;11.10;6.32;;;20.90;99.90;;;;;;5407169;26;20274;-75
2024/05/01 07:17:07;;;;;;;13.43;6.30;;;21.10;99.90;;;;;;5406819;26;20256;-75
2024/05/01 07:19:32;;;;;;;11.65;6.00;;;21.30;99.90;;;;;;5406609;26;20208;-75
2024/05/01 07:21:58;;;;;;;13.07;6.53;;;21.50;99.90;;;;;;5406372;26;20278;-75
2024/05/01 07:24:23;;;;;;;12.00;5.78;;;21.60;99.90;;;;;;5406529;26;20276;-75
2024/05/01 07:26:49;;;;;;;9.50;6.05;;;21.60;99.90;;;;;;5406840;26;20213;-75
2024/05/01 07:29:14;;;;;;;10.90;7.38;;;21.60;99.90;;;;;;5406864;26;20217;-75
2024/05/01 07:31:40;;;;;;;8.30;6.93;;;21.80;99.90;;;;;;5406275;26;20228;-74
2024/05/01 07:34:06;;;;;;;10.10;7.07;;;22.00;99.90;;;;;;5405975;26;20208;-75
2024/05/01 07:36:31;;;;;;;9.15;6.78;;;22.30;99.90;;;;;;5406542;26;20316;-75
2024/05/01 07:38:57;;;;;;;10.35;7.53;;;22.60;99.90;;;;;;5406648;26;20712;-75
2024/05/01 07:41:23;;;;;;;11.30;8.20;;;22.90;99.90;;;;;;5406523;26;20212;-75
2024/05/01 07:43:48;;;;;;;9.82;7.97;;;23.20;99.90;;;;;;5406584;26;20221;-75
2024/05/01 07:46:14;;;;;;;14.80;8.32;;;23.50;99.90;;;;;;5406422;26;20270;-75
2024/05/01 07:48:39;;;;;;;15.35;9.00;;;23.70;99.90;;;;;;5406080;26;20216;-75
2024/05/01 07:51:05;;;;;;;17.30;8.30;;;23.70;99.90;;;;;;5405809;26;20576;-75
2024/05/01 07:53:30;;;;;;;11.80;8.65;;;23.40;99.90;;;;;;5406624;26;20217;-75
2024/05/01 07:55:56;;;;;;;15.50;8.40;;;23.10;99.90;;;;;;5406426;26;20276;-75
2024/05/01 07:58:22;;;;;;;13.02;8.48;;;23.10;99.90;;;;;;5406762;26;20262;-75
2024/05/01 08:00:47;;;;;;;13.63;8.63;;;23.10;99.90;;;;;;5406112;26;20221;-75
2024/05/01 08:03:13;;;;;;;15.15;10.60;;;23.20;99.90;;;;;;5403070;26;20224;-75
2024/05/01 08:05:38;;;;;;;9.95;8.40;;;23.50;99.90;;;;;;5406419;26;20674;-75
2024/05/01 08:08:04;;;;;;;13.23;8.85;;;24.10;99.90;;;;;;5406288;26;20225;-75
2024/05/01 08:10:30;;;;;;;14.80;8.77;;;24.50;99.90;;;;;;5405699;26;20762;-75
2024/05/01 08:12:55;;;;;;;18.17;11.25;;;24.80;99.90;;;;;;5437500;26;20271;-73
2024/05/01 08:15:21;;;;;;;13.05;9.38;;;24.70;99.90;;;;;;5374401;26;20236;-73
2024/05/01 08:17:46;;;;;;;9.95;8.07;;;24.80;99.90;;;;;;5406196;26;20593;-73
2024/05/01 08:20:12;;;;;;;13.98;9.70;;;24.80;99.90;;;;;;5406146;26;20220;-73
2024/05/01 08:22:38;;;;;;;15.48;9.05;;;24.60;99.90;;;;;;5405557;26;20728;-73
2024/05/01 08:25:04;;;;;;;15.55;10.75;;;24.80;99.90;;;;;;5405622;26;20232;-73
2024/05/01 08:27:29;;;;;;;12.27;9.70;;;25.00;99.90;;;;;;5406026;26;20285;-73
2024/05/01 08:29:58;;;;;;;15.65;9.45;;;25.10;99.90;;;;;;5406024;26;20212;-73
2024/05/01 08:32:23;;;;;;;14.65;10.32;;;25.40;99.90;;;;;;5405322;26;20225;-73
2024/05/01 08:34:49;;;;;;;12.13;9.10;;;25.50;99.90;;;;;;5405915;26;20750;-73
2024/05/01 08:37:15;;;;;;;15.63;9.18;;;25.60;99.90;;;;;;5405974;26;20304;-73
2024/05/01 08:39:41;;;;;;;16.58;9.35;;;25.80;99.90;;;;;;5405916;26;20224;-73
2024/05/01 08:42:07;;;;;;;18.75;10.63;;;25.80;99.90;;;;;;5405602;26;20224;-73
2024/05/01 08:44:34;;;;;;;18.05;10.15;;;25.60;99.90;;;;;;5405538;26;20236;-73
2024/05/01 08:47:02;;;;;;;18.58;11.13;;;25.70;99.90;;;;;;5405482;26;20235;-74
2024/05/01 08:49:28;;;;;;;14.63;10.45;;;25.70;99.90;;;;;;5405978;26;20268;-73
2024/05/01 08:51:59;;;;;;;13.38;10.20;;;25.80;99.90;;;;;;5406070;26;20220;-74
2024/05/01 08:54:25;;;;;;;17.70;11.68;;;25.90;99.90;;;;;;5407786;26;20228;-73
2024/05/01 08:56:50;;;;;;;15.13;11.93;;;26.00;99.90;;;;;;5410259;26;20259;-74
2024/05/01 08:59:17;;;;;;;15.02;12.02;;;26.20;99.90;;;;;;5405260;26;20617;-73
2024/05/01 09:01:43;;;;;;;16.10;12.48;;;26.20;99.90;;;;;;5405462;26;20205;-73
2024/05/01 09:04:09;;;;;;;19.75;11.65;;;26.20;99.90;;;;;;5405904;26;20621;-73
2024/05/01 09:06:34;;;;;;;14.23;11.98;;;26.20;99.90;;;;;;5405135;26;20259;-73
2024/05/01 09:09:00;;;;;;;19.15;11.52;;;26.40;99.90;;;;;;5405751;26;20212;-73
2024/05/01 09:11:25;;;;;;;13.65;11.45;;;26.30;99.90;;;;;;5405695;26;20217;-73
2024/05/01 09:13:53;;;;;;;15.55;11.60;;;26.30;99.90;;;;;;5405246;26;20746;-73
2024/05/01 09:16:19;;;;;;;17.70;12.57;;;26.20;99.90;;;;;;5405257;26;20271;-73
2024/05/01 09:18:46;;;;;;;15.73;11.93;;;26.10;99.90;;;;;;5405705;26;20212;-74
2024/05/01 09:21:11;;;;;;;21.35;12.35;;;26.10;99.90;;;;;;5405387;26;20259;-74
2024/05/01 09:23:41;;;;;;;17.85;12.38;;;26.20;99.90;;;;;;5405184;26;20216;-73
2024/05/01 09:26:07;;;;;;;18.88;13.23;;;26.40;99.90;;;;;;5405566;26;20768;-74
2024/05/01 09:28:32;;;;;;;19.20;12.95;;;26.40;99.90;;;;;;5405101;26;20326;-73
2024/05/01 09:30:59;;;;;;;17.95;12.32;;;26.40;99.90;;;;;;5413877;26;20332;-73
2024/05/01 09:33:25;;;;;;;14.25;12.75;;;26.50;99.90;;;;;;5404870;26;20650;-73
2024/05/01 09:35:52;;;;;;;17.77;12.02;;;26.90;99.90;;;;;;5405840;26;20228;-73
2024/05/01 09:38:19;;;;;;;15.77;12.07;;;27.20;99.90;;;;;;5405219;26;20220;-74
2024/05/01 09:41:04;;;;;;;18.77;12.18;;;27.50;99.90;;;;;;5404826;26;20220;-74
2024/05/01 09:43:31;;;;;;;16.42;12.02;;;27.80;99.90;;;;;;5405422;26;20254;-73
2024/05/01 09:45:59;;;;;;;17.38;11.68;;;27.90;99.90;;;;;;5405843;26;20270;-74
2024/05/01 09:48:25;;;;;;;18.08;12.32;;;28.20;99.90;;;;;;5405350;26;20271;-74
2024/05/01 09:50:54;;;;;;;15.70;12.77;;;28.20;99.90;;;;;;5405100;26;20208;-74
2024/05/01 09:53:19;;;;;;;15.93;12.50;;;28.30;99.90;;;;;;5404902;26;20256;-74
2024/05/01 09:55:46;;;;;;;18.75;12.38;;;28.40;99.90;;;;;;5405486;26;20220;-74
2024/05/01 09:58:12;;;;;;;16.00;12.15;;;28.60;99.90;;;;;;5404680;26;20324;-74
2024/05/01 10:00:38;;;;;;;18.85;12.07;;;28.60;99.90;;;;;;5404455;26;20228;-74
2024/05/01 10:03:09;;;;;;;16.92;13.50;;;28.50;99.90;;;;;;5404612;26;20620;-74
2024/05/01 10:05:35;;;;;;;17.45;12.93;;;28.40;99.90;;;;;;5404589;26;20592;-73
2024/05/01 10:08:01;;;;;;;18.38;13.32;;;28.20;99.90;;;;;;5413900;26;20568;-74
2024/05/01 10:10:27;;;;;;;17.95;12.20;;;28.10;99.90;;;;;;5404140;26;20337;-74
2024/05/01 10:13:08;;;;;;;17.05;12.50;;;27.90;99.90;;;;;;5404645;26;20271;-73
2024/05/01 10:15:43;;;;;;;19.00;12.32;;;27.70;99.90;;;;;;5404373;26;20283;-74
2024/05/01 10:18:13;;;;;;;18.65;12.55;;;27.70;99.90;;;;;;5405208;26;20208;-73
2024/05/01 10:20:49;;;;;;;17.85;12.60;;;27.60;99.90;;;;;;5403935;26;20785;-74
2024/05/01 10:23:22;;;;;;;18.00;13.57;;;27.50;99.90;;;;;;5404122;26;20303;-73
2024/05/01 10:25:50;;;;;;;16.90;13.00;;;27.70;99.90;;;;;;5405105;26;20344;-74
2024/05/01 10:28:37;;;;;;;21.70;13.40;;;27.40;99.90;;;;;;5404863;26;20283;-73
2024/05/01 10:31:04;;;;;;;18.83;13.02;;;27.40;99.90;;;;;;5384926;26;20260;-73
2024/05/01 10:33:31;;;;;;;17.67;13.25;;;27.50;99.90;;;;;;5404480;26;20323;-73
2024/05/01 10:36:06;;;;;;;14.75;12.80;;;27.50;99.90;;;;;;5404234;26;20276;-73
2024/05/01 10:38:34;;;;;;;17.33;12.55;;;27.60;99.90;;;;;;5403701;26;20212;-74
2024/05/01 10:41:03;;;;;;;19.98;13.73;;;27.70;99.90;;;;;;5403936;26;20313;-73
2024/05/01 10:43:29;;;;;;;17.85;11.55;;;27.70;99.90;;;;;;5403650;26;20284;-73
2024/05/01 10:45:55;;;;;;;16.15;12.63;;;27.80;99.90;;;;;;5403345;26;20224;-74
2024/05/01 10:48:21;;;;;;;19.67;12.70;;;27.90;99.90;;;;;;5404004;26;20524;-73
2024/05/01 10:50:48;;;;;;;15.73;12.45;;;28.00;99.90;;;;;;5402632;26;20300;-73
2024/05/01 10:53:14;;;;;;;14.00;11.95;;;28.10;99.90;;;;;;5403013;26;20560;-74
2024/05/01 10:55:40;;;;;;;20.60;12.48;;;28.00;99.90;;;;;;5402530;26;20224;-74
2024/05/01 10:58:07;;;;;;;12.98;10.82;;;27.90;99.90;;;;;;5404331;26;20209;-73
2024/05/01 11:00:33;;;;;;;19.17;11.45;;;27.90;99.90;;;;;;5403481;26;20225;-73
2024/05/01 11:02:59;;;;;;;14.77;11.70;;;28.10;99.90;;;;;;5404189;26;20216;-74
2024/05/01 11:05:24;;;;;;;12.95;10.93;;;28.40;99.90;;;;;;5403846;26;20228;-74
2024/05/01 11:07:51;;;;;;;16.15;11.70;;;28.50;99.90;;;;;;5403842;26;20205;-73
2024/05/01 11:10:21;;;;;;;20.15;11.02;;;28.80;99.90;;;;;;5405250;26;20332;-73
2024/05/01 11:12:53;;;;;;;13.60;10.48;;;29.00;99.90;;;;;;5407079;26;20216;-73
2024/05/01 11:15:25;;;;;;;10.82;9.65;;;28.60;99.90;;;;;;5406876;26;20260;-73
2024/05/01 11:17:56;;;;;;;16.08;8.85;;;28.50;99.90;;;;;;5407747;26;20301;-73
2024/05/01 11:20:22;;;;;;;11.13;9.65;;;28.60;99.90;;;;;;5406892;26;20716;-73
2024/05/01 11:22:49;;;;;;;16.45;11.48;;;28.60;99.90;;;;;;5407158;26;20260;-73
2024/05/01 11:25:14;;;;;;;14.82;10.57;;;28.60;99.90;;;;;;5406984;26;20346;-73
2024/05/01 11:27:40;;;;;;;17.58;10.07;;;28.60;99.90;;;;;;5407203;26;20213;-74
2024/05/01 11:30:07;;;;;;;15.23;10.75;;;28.50;99.90;;;;;;5407103;26;20228;-74
2024/05/01 11:32:32;;;;;;;17.48;10.88;;;28.50;99.90;;;;;;5406543;26;20221;-74
2024/05/01 11:34:58;;;;;;;14.82;11.52;;;28.50;99.90;;;;;;5407144;26;20266;-73
2024/05/01 11:37:24;;;;;;;14.68;10.15;;;28.80;99.90;;;;;;5407050;26;20208;-73
2024/05/01 11:39:50;;;;;;;13.02;10.75;;;29.10;99.90;;;;;;5406580;26;20271;-73
2024/05/01 11:42:16;;;;;;;13.05;10.52;;;29.30;99.90;;;;;;5406709;26;20212;-74
2024/05/01 11:44:42;;;;;;;15.77;10.85;;;29.40;99.90;;;;;;5406329;26;20332;-74
2024/05/01 11:47:08;;;;;;;16.98;10.63;;;29.60;99.90;;;;;;5406977;26;20216;-73
2024/05/01 11:49:34;;;;;;;15.27;11.07;;;29.80;99.90;;;;;;5406707;26;20209;-73
2024/05/01 11:51:59;;;;;;;18.83;10.82;;;29.60;99.90;;;;;;5415960;26;20227;-74
2024/05/01 11:54:26;;;;;;;16.48;11.63;;;29.30;99.90;;;;;;5406526;26;20565;-74
2024/05/01 11:56:52;;;;;;;17.05;11.95;;;29.50;99.90;;;;;;5407226;26;20676;-73
2024/05/01 11:59:18;;;;;;;13.73;10.95;;;29.50;99.90;;;;;;5406833;26;20259;-73
2024/05/01 12:01:44;;;;;;;14.35;10.80;;;29.60;99.90;;;;;;5406572;26;20316;-73
2024/05/01 12:04:11;;;;;;;14.20;10.00;;;29.90;99.90;;;;;;5406916;26;20223;-73
2024/05/01 12:06:37;;;;;;;17.00;10.23;;;30.10;99.90;;;;;;5406169;26;20587;-73
2024/05/01 12:09:04;;;;;;;17.30;11.05;;;30.10;99.90;;;;;;5406414;26;20212;-73
2024/05/01 12:11:30;;;;;;;14.88;9.95;;;29.80;99.90;;;;;;5406004;26;20250;-73
2024/05/01 12:13:56;;;;;;;12.35;11.02;;;29.70;99.90;;;;;;5406432;26;20614;-74
2024/05/01 12:16:22;;;;;;;14.40;10.90;;;29.70;99.90;;;;;;5406296;26;20618;-74
2024/05/01 12:19:05;;;;;;;16.02;11.45;;;29.50;99.90;;;;;;5406935;26;20754;-73
2024/05/01 12:21:31;;;;;;;15.68;10.95;;;29.40;99.90;;;;;;5399057;26;20255;-74
2024/05/01 12:24:07;;;;;;;17.17;10.60;;;29.60;99.90;;;;;;5406611;26;20680;-73
2024/05/01 12:26:33;;;;;;;12.40;10.27;;;29.60;99.90;;;;;;5406457;26;20258;-73
2024/05/01 12:29:17;;;;;;;15.40;9.93;;;29.60;99.90;;;;;;5406419;26;20212;-73